sensor_id;sensor_type;location;lat;lon;timestamp;pressure;altitude;pressure_sealevel;temperature;humidity
22333;BME280;11334;36.986;-121.936;2023-01-31T00:01:24;101266.16;;;14.45;42.88
22333;BME280;11334;36.986;-121.936;2023-01-31T00:03:58;101253.34;;;14.41;42.74
22333;BME280;11334;36.986;-121.936;2023-01-31T00:06:30;101262.19;;;14.41;43.09
22333;BME280;11334;36.986;-121.936;2023-01-31T00:08:58;101261.34;;;14.41;42.41
22333;BME280;11334;36.986;-121.936;2023-01-31T00:11:27;101263.81;;;14.42;42.35
22333;BME280;11334;36.986;-121.936;2023-01-31T00:13:54;101271.00;;;14.42;42.39
22333;BME280;11334;36.986;-121.936;2023-01-31T00:16:21;101274.69;;;14.41;42.37
22333;BME280;11334;36.986;-121.936;2023-01-31T00:18:48;101270.50;;;14.38;42.66
22333;BME280;11334;36.986;-121.936;2023-01-31T00:21:20;101286.16;;;14.41;43.43
22333;BME280;11334;36.986;-121.936;2023-01-31T00:23:47;101287.16;;;14.40;43.74
22333;BME280;11334;36.986;-121.936;2023-01-31T00:28:51;101293.00;;;14.36;43.65
22333;BME280;11334;36.986;-121.936;2023-01-31T00:31:19;101296.66;;;14.35;43.78
22333;BME280;11334;36.986;-121.936;2023-01-31T00:33:46;101290.66;;;14.33;43.79
22333;BME280;11334;36.986;-121.936;2023-01-31T00:36:16;101296.97;;;14.48;37.08
22333;BME280;11334;36.986;-121.936;2023-01-31T00:38:43;101302.31;;;14.48;36.79
22333;BME280;11334;36.986;-121.936;2023-01-31T00:41:10;101307.31;;;14.43;35.49
22333;BME280;11334;36.986;-121.936;2023-01-31T00:43:36;101311.00;;;14.34;33.03
22333;BME280;11334;36.986;-121.936;2023-01-31T00:46:03;101312.16;;;14.31;34.69
22333;BME280;11334;36.986;-121.936;2023-01-31T00:48:30;101302.34;;;14.24;34.03
22333;BME280;11334;36.986;-121.936;2023-01-31T00:50:56;101321.81;;;14.32;33.05
22333;BME280;11334;36.986;-121.936;2023-01-31T00:53:23;101319.50;;;14.29;33.39
22333;BME280;11334;36.986;-121.936;2023-01-31T00:55:52;101324.31;;;14.34;33.35
22333;BME280;11334;36.986;-121.936;2023-01-31T00:58:19;101322.66;;;14.33;34.04
22333;BME280;11334;36.986;-121.936;2023-01-31T01:00:45;101319.66;;;14.36;33.98
22333;BME280;11334;36.986;-121.936;2023-01-31T01:03:12;101326.16;;;14.33;33.88
22333;BME280;11334;36.986;-121.936;2023-01-31T01:05:38;101337.66;;;14.34;33.73
22333;BME280;11334;36.986;-121.936;2023-01-31T01:08:05;101331.16;;;14.36;31.90
22333;BME280;11334;36.986;-121.936;2023-01-31T01:10:32;101330.81;;;14.39;31.46
22333;BME280;11334;36.986;-121.936;2023-01-31T01:12:58;101333.66;;;14.30;32.62
22333;BME280;11334;36.986;-121.936;2023-01-31T01:15:25;101343.81;;;14.26;33.29
22333;BME280;11334;36.986;-121.936;2023-01-31T01:17:51;101344.47;;;14.21;32.35
22333;BME280;11334;36.986;-121.936;2023-01-31T01:20:18;101347.78;;;14.15;31.90
22333;BME280;11334;36.986;-121.936;2023-01-31T01:22:45;101336.56;;;13.95;32.68
22333;BME280;11334;36.986;-121.936;2023-01-31T01:25:11;101337.78;;;14.01;31.95
22333;BME280;11334;36.986;-121.936;2023-01-31T01:27:37;101341.22;;;13.93;33.30
22333;BME280;11334;36.986;-121.936;2023-01-31T01:30:04;101346.53;;;13.86;34.06
22333;BME280;11334;36.986;-121.936;2023-01-31T01:32:31;101336.69;;;13.78;33.61
22333;BME280;11334;36.986;-121.936;2023-01-31T01:34:57;101328.53;;;13.72;33.93
22333;BME280;11334;36.986;-121.936;2023-01-31T01:37:23;101338.00;;;13.66;33.63
22333;BME280;11334;36.986;-121.936;2023-01-31T01:39:50;101339.66;;;13.59;33.13
22333;BME280;11334;36.986;-121.936;2023-01-31T01:42:22;101342.44;;;13.50;33.75
22333;BME280;11334;36.986;-121.936;2023-01-31T01:44:50;101338.41;;;13.46;34.15
22333;BME280;11334;36.986;-121.936;2023-01-31T01:47:45;101344.41;;;13.40;33.77
22333;BME280;11334;36.986;-121.936;2023-01-31T01:50:35;101348.34;;;13.36;33.52
22333;BME280;11334;36.986;-121.936;2023-01-31T01:53:08;101350.84;;;13.30;33.50
22333;BME280;11334;36.986;-121.936;2023-01-31T01:55:46;101358.44;;;13.17;33.68
22333;BME280;11334;36.986;-121.936;2023-01-31T01:58:23;101353.72;;;13.11;33.46
22333;BME280;11334;36.986;-121.936;2023-01-31T02:00:52;101352.69;;;13.04;33.03
22333;BME280;11334;36.986;-121.936;2023-01-31T02:03:19;101345.47;;;12.97;33.69
22333;BME280;11334;36.986;-121.936;2023-01-31T02:05:57;101368.91;;;12.94;33.96
22333;BME280;11334;36.986;-121.936;2023-01-31T02:08:27;101359.69;;;12.80;33.08
22333;BME280;11334;36.986;-121.936;2023-01-31T02:13:30;101388.25;;;12.78;33.34
22333;BME280;11334;36.986;-121.936;2023-01-31T02:15:57;101383.00;;;12.69;33.52
22333;BME280;11334;36.986;-121.936;2023-01-31T02:18:25;101384.75;;;12.61;33.44
22333;BME280;11334;36.986;-121.936;2023-01-31T02:26:46;101403.91;;;12.47;33.00
22333;BME280;11334;36.986;-121.936;2023-01-31T02:35:12;101415.66;;;12.27;33.01
22333;BME280;11334;36.986;-121.936;2023-01-31T02:40:46;101425.84;;;12.14;33.98
22333;BME280;11334;36.986;-121.936;2023-01-31T02:43:42;101433.09;;;12.12;33.26
22333;BME280;11334;36.986;-121.936;2023-01-31T02:46:35;101436.38;;;12.06;32.85
22333;BME280;11334;36.986;-121.936;2023-01-31T02:49:17;101439.91;;;11.98;32.03
22333;BME280;11334;36.986;-121.936;2023-01-31T02:55:20;101437.38;;;11.79;32.33
22333;BME280;11334;36.986;-121.936;2023-01-31T02:58:08;101449.13;;;11.76;32.16
22333;BME280;11334;36.986;-121.936;2023-01-31T03:00:38;101447.84;;;11.80;32.19
22333;BME280;11334;36.986;-121.936;2023-01-31T03:03:07;101445.19;;;11.80;32.09
22333;BME280;11334;36.986;-121.936;2023-01-31T03:05:38;101446.47;;;11.76;32.67
22333;BME280;11334;36.986;-121.936;2023-01-31T03:08:10;101451.47;;;11.79;32.64
22333;BME280;11334;36.986;-121.936;2023-01-31T03:11:01;101453.31;;;11.79;32.35
22333;BME280;11334;36.986;-121.936;2023-01-31T03:21:50;101453.03;;;11.72;32.40
22333;BME280;11334;36.986;-121.936;2023-01-31T03:24:18;101449.56;;;11.72;32.57
22333;BME280;11334;36.986;-121.936;2023-01-31T03:26:52;101457.56;;;11.63;33.16
22333;BME280;11334;36.986;-121.936;2023-01-31T03:29:21;101461.03;;;11.63;32.76
22333;BME280;11334;36.986;-121.936;2023-01-31T03:31:56;101466.78;;;11.59;33.38
22333;BME280;11334;36.986;-121.936;2023-01-31T03:34:24;101465.00;;;11.59;33.20
22333;BME280;11334;36.986;-121.936;2023-01-31T03:46:14;101487.19;;;11.58;32.49
22333;BME280;11334;36.986;-121.936;2023-01-31T03:48:47;101479.94;;;11.51;32.29
22333;BME280;11334;36.986;-121.936;2023-01-31T03:51:20;101478.19;;;11.42;32.07
22333;BME280;11334;36.986;-121.936;2023-01-31T03:53:51;101487.34;;;11.38;32.20
22333;BME280;11334;36.986;-121.936;2023-01-31T03:56:52;101487.34;;;11.38;32.14
22333;BME280;11334;36.986;-121.936;2023-01-31T03:59:24;101488.19;;;11.38;32.06
22333;BME280;11334;36.986;-121.936;2023-01-31T04:01:54;101488.34;;;11.37;31.28
22333;BME280;11334;36.986;-121.936;2023-01-31T04:04:30;101495.88;;;11.41;31.54
22333;BME280;11334;36.986;-121.936;2023-01-31T04:07:00;101501.03;;;11.34;32.27
22333;BME280;11334;36.986;-121.936;2023-01-31T04:09:26;101513.06;;;11.28;32.55
22333;BME280;11334;36.986;-121.936;2023-01-31T04:11:53;101518.78;;;11.24;32.01
22333;BME280;11334;36.986;-121.936;2023-01-31T04:14:19;101514.47;;;11.23;32.05
22333;BME280;11334;36.986;-121.936;2023-01-31T04:16:45;101516.59;;;11.19;31.88
22333;BME280;11334;36.986;-121.936;2023-01-31T04:19:12;101519.91;;;11.21;32.54
22333;BME280;11334;36.986;-121.936;2023-01-31T04:21:38;101514.38;;;11.15;32.19
22333;BME280;11334;36.986;-121.936;2023-01-31T04:24:04;101513.25;;;11.17;32.76
22333;BME280;11334;36.986;-121.936;2023-01-31T04:26:31;101521.84;;;11.29;31.75
22333;BME280;11334;36.986;-121.936;2023-01-31T04:28:57;101524.56;;;11.19;32.06
22333;BME280;11334;36.986;-121.936;2023-01-31T04:31:23;101520.22;;;11.18;31.31
22333;BME280;11334;36.986;-121.936;2023-01-31T04:33:49;101524.97;;;11.15;32.14
22333;BME280;11334;36.986;-121.936;2023-01-31T04:36:15;101530.00;;;11.08;32.39
22333;BME280;11334;36.986;-121.936;2023-01-31T04:38:42;101540.06;;;11.05;33.02
22333;BME280;11334;36.986;-121.936;2023-01-31T04:41:08;101541.88;;;11.04;33.49
22333;BME280;11334;36.986;-121.936;2023-01-31T04:43:34;101541.28;;;11.01;33.15
22333;BME280;11334;36.986;-121.936;2023-01-31T04:46:03;101544.09;;;11.00;32.32
22333;BME280;11334;36.986;-121.936;2023-01-31T04:48:29;101536.41;;;10.97;33.13
22333;BME280;11334;36.986;-121.936;2023-01-31T04:50:56;101549.41;;;11.00;33.04
22333;BME280;11334;36.986;-121.936;2023-01-31T04:53:22;101550.25;;;11.00;33.14
22333;BME280;11334;36.986;-121.936;2023-01-31T04:55:48;101555.66;;;10.99;33.64
22333;BME280;11334;36.986;-121.936;2023-01-31T04:58:14;101557.06;;;11.03;33.90
22333;BME280;11334;36.986;-121.936;2023-01-31T05:00:41;101562.09;;;11.05;34.50
22333;BME280;11334;36.986;-121.936;2023-01-31T05:03:09;101551.91;;;11.01;34.30
22333;BME280;11334;36.986;-121.936;2023-01-31T05:05:35;101551.34;;;10.98;34.78
22333;BME280;11334;36.986;-121.936;2023-01-31T05:08:02;101546.88;;;10.89;35.21
22333;BME280;11334;36.986;-121.936;2023-01-31T05:10:28;101544.91;;;10.81;35.55
22333;BME280;11334;36.986;-121.936;2023-01-31T05:12:54;101539.47;;;10.73;36.69
22333;BME280;11334;36.986;-121.936;2023-01-31T05:15:21;101536.28;;;10.70;35.84
22333;BME280;11334;36.986;-121.936;2023-01-31T05:17:54;101532.06;;;10.77;35.85
22333;BME280;11334;36.986;-121.936;2023-01-31T05:20:32;101540.31;;;10.74;34.94
22333;BME280;11334;36.986;-121.936;2023-01-31T05:23:01;101511.84;;;10.67;32.70
22333;BME280;11334;36.986;-121.936;2023-01-31T05:25:27;101527.91;;;10.84;31.77
22333;BME280;11334;36.986;-121.936;2023-01-31T05:27:55;101536.97;;;10.81;31.85
22333;BME280;11334;36.986;-121.936;2023-01-31T05:30:22;101532.34;;;10.74;31.72
22333;BME280;11334;36.986;-121.936;2023-01-31T05:32:51;101552.03;;;10.72;31.06
22333;BME280;11334;36.986;-121.936;2023-01-31T05:35:18;101528.31;;;10.51;31.39
22333;BME280;11334;36.986;-121.936;2023-01-31T05:37:44;101550.06;;;10.64;30.97
22333;BME280;11334;36.986;-121.936;2023-01-31T05:40:13;101550.91;;;10.65;32.21
22333;BME280;11334;36.986;-121.936;2023-01-31T05:42:40;101557.88;;;10.66;32.89
22333;BME280;11334;36.986;-121.936;2023-01-31T05:45:07;101564.03;;;10.66;33.65
22333;BME280;11334;36.986;-121.936;2023-01-31T05:47:34;101572.09;;;10.65;34.05
22333;BME280;11334;36.986;-121.936;2023-01-31T05:50:00;101565.41;;;10.61;35.12
22333;BME280;11334;36.986;-121.936;2023-01-31T05:52:26;101567.06;;;10.62;35.69
22333;BME280;11334;36.986;-121.936;2023-01-31T05:54:52;101574.19;;;10.61;37.41
22333;BME280;11334;36.986;-121.936;2023-01-31T05:57:19;101567.75;;;10.54;36.76
22333;BME280;11334;36.986;-121.936;2023-01-31T05:59:45;101574.88;;;10.54;36.48
22333;BME280;11334;36.986;-121.936;2023-01-31T06:02:12;101583.78;;;10.43;37.24
22333;BME280;11334;36.986;-121.936;2023-01-31T06:04:38;101581.41;;;10.41;37.52
22333;BME280;11334;36.986;-121.936;2023-01-31T06:07:04;101593.50;;;10.34;39.02
22333;BME280;11334;36.986;-121.936;2023-01-31T06:09:31;101588.13;;;10.15;39.94
22333;BME280;11334;36.986;-121.936;2023-01-31T06:11:57;101590.78;;;10.15;39.05
22333;BME280;11334;36.986;-121.936;2023-01-31T06:14:23;101577.09;;;10.01;39.04
22333;BME280;11334;36.986;-121.936;2023-01-31T06:16:49;101583.44;;;9.89;40.21
22333;BME280;11334;36.986;-121.936;2023-01-31T06:19:15;101585.53;;;9.75;40.47
22333;BME280;11334;36.986;-121.936;2023-01-31T06:21:42;101583.56;;;9.67;39.95
22333;BME280;11334;36.986;-121.936;2023-01-31T06:24:08;101600.53;;;9.65;40.70
22333;BME280;11334;36.986;-121.936;2023-01-31T06:26:37;101596.41;;;9.51;40.39
22333;BME280;11334;36.986;-121.936;2023-01-31T06:29:03;101594.78;;;9.19;41.63
22333;BME280;11334;36.986;-121.936;2023-01-31T06:31:30;101610.22;;;9.35;40.55
22333;BME280;11334;36.986;-121.936;2023-01-31T06:33:56;101610.00;;;9.27;40.87
22333;BME280;11334;36.986;-121.936;2023-01-31T06:36:23;101605.66;;;9.26;42.34
22333;BME280;11334;36.986;-121.936;2023-01-31T06:38:50;101614.22;;;9.18;42.28
22333;BME280;11334;36.986;-121.936;2023-01-31T06:41:18;101611.97;;;9.14;42.46
22333;BME280;11334;36.986;-121.936;2023-01-31T06:43:45;101591.06;;;8.91;43.54
22333;BME280;11334;36.986;-121.936;2023-01-31T06:46:11;101613.63;;;8.84;43.75
22333;BME280;11334;36.986;-121.936;2023-01-31T06:48:37;101614.94;;;8.89;43.66
22333;BME280;11334;36.986;-121.936;2023-01-31T06:51:04;101619.19;;;8.81;44.15
22333;BME280;11334;36.986;-121.936;2023-01-31T06:53:30;101618.50;;;8.68;44.16
22333;BME280;11334;36.986;-121.936;2023-01-31T06:55:56;101619.22;;;8.59;45.12
22333;BME280;11334;36.986;-121.936;2023-01-31T06:58:22;101624.91;;;8.44;46.37
22333;BME280;11334;36.986;-121.936;2023-01-31T07:00:48;101632.47;;;8.49;45.65
22333;BME280;11334;36.986;-121.936;2023-01-31T07:03:15;101626.34;;;8.48;46.51
22333;BME280;11334;36.986;-121.936;2023-01-31T07:05:41;101625.88;;;8.43;46.72
22333;BME280;11334;36.986;-121.936;2023-01-31T07:08:07;101609.69;;;8.26;46.36
22333;BME280;11334;36.986;-121.936;2023-01-31T07:10:33;101615.06;;;8.24;47.32
22333;BME280;11334;36.986;-121.936;2023-01-31T07:13:00;101630.81;;;8.26;46.70
22333;BME280;11334;36.986;-121.936;2023-01-31T07:15:26;101615.19;;;8.12;48.40
22333;BME280;11334;36.986;-121.936;2023-01-31T07:17:59;101629.59;;;8.19;47.72
22333;BME280;11334;36.986;-121.936;2023-01-31T07:20:25;101623.69;;;8.05;50.09
22333;BME280;11334;36.986;-121.936;2023-01-31T07:22:58;101624.88;;;7.90;49.62
22333;BME280;11334;36.986;-121.936;2023-01-31T07:25:25;101636.53;;;7.98;49.07
22333;BME280;11334;36.986;-121.936;2023-01-31T07:27:52;101635.31;;;7.91;49.83
22333;BME280;11334;36.986;-121.936;2023-01-31T07:30:18;101618.03;;;7.77;51.00
22333;BME280;11334;36.986;-121.936;2023-01-31T07:32:44;101616.13;;;7.79;50.01
22333;BME280;11334;36.986;-121.936;2023-01-31T07:35:11;101621.75;;;7.85;50.34
22333;BME280;11334;36.986;-121.936;2023-01-31T07:37:37;101620.28;;;7.70;50.31
22333;BME280;11334;36.986;-121.936;2023-01-31T07:40:04;101590.19;;;7.51;50.31
22333;BME280;11334;36.986;-121.936;2023-01-31T07:42:31;101614.84;;;7.50;51.07
22333;BME280;11334;36.986;-121.936;2023-01-31T07:44:57;101631.50;;;7.51;52.08
22333;BME280;11334;36.986;-121.936;2023-01-31T07:47:23;101630.09;;;7.47;51.93
22333;BME280;11334;36.986;-121.936;2023-01-31T07:49:49;101628.66;;;7.54;51.54
22333;BME280;11334;36.986;-121.936;2023-01-31T07:52:16;101638.25;;;7.55;52.50
22333;BME280;11334;36.986;-121.936;2023-01-31T07:54:42;101639.78;;;7.46;52.82
22333;BME280;11334;36.986;-121.936;2023-01-31T07:57:08;101648.53;;;7.47;52.33
22333;BME280;11334;36.986;-121.936;2023-01-31T07:59:34;101640.72;;;7.45;52.20
22333;BME280;11334;36.986;-121.936;2023-01-31T08:02:01;101631.84;;;7.35;52.39
22333;BME280;11334;36.986;-121.936;2023-01-31T08:04:45;101645.81;;;7.25;54.26
22333;BME280;11334;36.986;-121.936;2023-01-31T08:07:12;101641.78;;;7.09;54.50
22333;BME280;11334;36.986;-121.936;2023-01-31T08:09:38;101638.53;;;7.05;54.71
22333;BME280;11334;36.986;-121.936;2023-01-31T08:12:05;101640.09;;;7.08;55.10
22333;BME280;11334;36.986;-121.936;2023-01-31T08:14:32;101622.91;;;6.92;54.86
22333;BME280;11334;36.986;-121.936;2023-01-31T08:16:59;101638.38;;;6.96;55.64
22333;BME280;11334;36.986;-121.936;2023-01-31T08:19:25;101641.97;;;6.95;55.71
22333;BME280;11334;36.986;-121.936;2023-01-31T08:21:52;101649.53;;;6.99;55.45
22333;BME280;11334;36.986;-121.936;2023-01-31T08:24:18;101658.94;;;6.91;56.52
22333;BME280;11334;36.986;-121.936;2023-01-31T08:26:44;101657.00;;;6.82;57.33
22333;BME280;11334;36.986;-121.936;2023-01-31T08:29:10;101653.09;;;6.75;56.63
22333;BME280;11334;36.986;-121.936;2023-01-31T08:31:39;101662.75;;;6.87;56.22
22333;BME280;11334;36.986;-121.936;2023-01-31T08:34:07;101665.72;;;6.83;56.33
22333;BME280;11334;36.986;-121.936;2023-01-31T08:36:33;101670.84;;;6.84;55.91
22333;BME280;11334;36.986;-121.936;2023-01-31T08:39:00;101676.16;;;6.72;58.24
22333;BME280;11334;36.986;-121.936;2023-01-31T08:41:28;101670.03;;;6.48;58.35
22333;BME280;11334;36.986;-121.936;2023-01-31T08:43:55;101671.47;;;6.52;59.39
22333;BME280;11334;36.986;-121.936;2023-01-31T08:46:26;101680.44;;;6.50;59.51
22333;BME280;11334;36.986;-121.936;2023-01-31T08:48:54;101680.59;;;6.36;60.40
22333;BME280;11334;36.986;-121.936;2023-01-31T08:51:21;101685.84;;;6.36;60.09
22333;BME280;11334;36.986;-121.936;2023-01-31T08:53:47;101668.41;;;6.23;60.39
22333;BME280;11334;36.986;-121.936;2023-01-31T08:56:14;101700.34;;;6.41;58.26
22333;BME280;11334;36.986;-121.936;2023-01-31T08:58:41;101693.44;;;6.40;59.61
22333;BME280;11334;36.986;-121.936;2023-01-31T09:01:11;101699.09;;;6.34;59.39
22333;BME280;11334;36.986;-121.936;2023-01-31T09:03:38;101695.72;;;6.32;59.19
22333;BME280;11334;36.986;-121.936;2023-01-31T09:06:07;101677.66;;;6.16;60.13
22333;BME280;11334;36.986;-121.936;2023-01-31T09:08:34;101676.72;;;6.17;60.64
22333;BME280;11334;36.986;-121.936;2023-01-31T09:11:00;101683.22;;;6.24;60.93
22333;BME280;11334;36.986;-121.936;2023-01-31T09:13:27;101654.22;;;6.13;60.00
22333;BME280;11334;36.986;-121.936;2023-01-31T09:16:04;101681.22;;;6.27;60.13
22333;BME280;11334;36.986;-121.936;2023-01-31T09:18:35;101682.19;;;6.14;61.62
22333;BME280;11334;36.986;-121.936;2023-01-31T09:21:12;101684.91;;;5.88;62.50
22333;BME280;11334;36.986;-121.936;2023-01-31T09:23:39;101680.91;;;5.95;62.41
22333;BME280;11334;36.986;-121.936;2023-01-31T09:26:06;101671.56;;;5.91;62.32
22333;BME280;11334;36.986;-121.936;2023-01-31T09:28:33;101681.56;;;5.86;62.01
22333;BME280;11334;36.986;-121.936;2023-01-31T09:31:05;101679.03;;;5.97;61.43
22333;BME280;11334;36.986;-121.936;2023-01-31T09:33:33;101681.13;;;5.79;63.55
22333;BME280;11334;36.986;-121.936;2023-01-31T09:36:02;101680.59;;;5.87;63.02
22333;BME280;11334;36.986;-121.936;2023-01-31T09:38:29;101686.09;;;5.84;62.37
22333;BME280;11334;36.986;-121.936;2023-01-31T09:40:58;101673.78;;;5.84;61.95
22333;BME280;11334;36.986;-121.936;2023-01-31T09:43:29;101677.44;;;5.82;62.38
22333;BME280;11334;36.986;-121.936;2023-01-31T09:46:00;101678.28;;;5.82;62.14
22333;BME280;11334;36.986;-121.936;2023-01-31T09:48:31;101686.25;;;5.68;63.36
22333;BME280;11334;36.986;-121.936;2023-01-31T09:50:59;101677.72;;;5.65;63.77
22333;BME280;11334;36.986;-121.936;2023-01-31T09:53:36;101678.00;;;5.61;64.09
22333;BME280;11334;36.986;-121.936;2023-01-31T09:56:10;101675.00;;;5.66;64.11
22333;BME280;11334;36.986;-121.936;2023-01-31T09:58:50;101678.25;;;5.70;63.17
22333;BME280;11334;36.986;-121.936;2023-01-31T10:01:28;101690.09;;;5.63;63.73
22333;BME280;11334;36.986;-121.936;2023-01-31T10:04:34;101678.44;;;5.67;62.89
22333;BME280;11334;36.986;-121.936;2023-01-31T10:10:42;101668.34;;;5.49;63.50
22333;BME280;11334;36.986;-121.936;2023-01-31T10:12:46;101685.59;;;5.65;62.96
22333;BME280;11334;36.986;-121.936;2023-01-31T10:18:37;101682.63;;;5.45;64.48
22333;BME280;11334;36.986;-121.936;2023-01-31T10:21:12;101682.63;;;5.45;64.22
22333;BME280;11334;36.986;-121.936;2023-01-31T10:23:41;101682.16;;;5.38;64.10
22333;BME280;11334;36.986;-121.936;2023-01-31T10:26:24;101684.25;;;5.33;65.25
22333;BME280;11334;36.986;-121.936;2023-01-31T10:29:07;101682.00;;;5.41;64.42
22333;BME280;11334;36.986;-121.936;2023-01-31T10:31:42;101680.28;;;5.40;63.36
22333;BME280;11334;36.986;-121.936;2023-01-31T10:34:18;101687.03;;;5.44;64.07
22333;BME280;11334;36.986;-121.936;2023-01-31T10:42:39;101692.66;;;5.26;64.55
22333;BME280;11334;36.986;-121.936;2023-01-31T10:47:55;101705.28;;;5.33;62.30
22333;BME280;11334;36.986;-121.936;2023-01-31T10:50:39;101704.59;;;5.18;63.83
22333;BME280;11334;36.986;-121.936;2023-01-31T10:56:33;101707.78;;;4.97;63.03
22333;BME280;11334;36.986;-121.936;2023-01-31T10:59:04;101686.47;;;5.01;61.79
22333;BME280;11334;36.986;-121.936;2023-01-31T11:01:34;101709.59;;;5.08;63.06
22333;BME280;11334;36.986;-121.936;2023-01-31T11:04:01;101709.16;;;5.02;62.85
22333;BME280;11334;36.986;-121.936;2023-01-31T11:06:27;101702.41;;;4.98;63.16
22333;BME280;11334;36.986;-121.936;2023-01-31T11:08:58;101713.75;;;4.99;63.77
22333;BME280;11334;36.986;-121.936;2023-01-31T11:11:27;101709.53;;;4.96;63.69
22333;BME280;11334;36.986;-121.936;2023-01-31T11:14:17;101714.00;;;5.08;63.59
22333;BME280;11334;36.986;-121.936;2023-01-31T11:16:44;101719.34;;;5.06;63.63
22333;BME280;11334;36.986;-121.936;2023-01-31T11:19:17;101720.44;;;5.04;62.97
22333;BME280;11334;36.986;-121.936;2023-01-31T11:21:52;101717.81;;;4.90;63.94
22333;BME280;11334;36.986;-121.936;2023-01-31T11:24:22;101718.78;;;4.89;63.14
22333;BME280;11334;36.986;-121.936;2023-01-31T11:29:26;101722.72;;;4.82;63.37
22333;BME280;11334;36.986;-121.936;2023-01-31T11:31:54;101722.59;;;4.84;64.31
22333;BME280;11334;36.986;-121.936;2023-01-31T11:34:27;101723.00;;;4.92;63.04
22333;BME280;11334;36.986;-121.936;2023-01-31T11:37:13;101729.00;;;4.80;64.09
22333;BME280;11334;36.986;-121.936;2023-01-31T11:39:40;101736.13;;;4.78;64.02
22333;BME280;11334;36.986;-121.936;2023-01-31T11:42:14;101733.63;;;4.63;64.12
22333;BME280;11334;36.986;-121.936;2023-01-31T11:44:59;101721.06;;;4.68;64.41
22333;BME280;11334;36.986;-121.936;2023-01-31T11:47:51;101719.34;;;4.67;62.92
22333;BME280;11334;36.986;-121.936;2023-01-31T11:50:21;101720.72;;;4.60;63.65
22333;BME280;11334;36.986;-121.936;2023-01-31T11:52:56;101720.72;;;4.60;63.40
22333;BME280;11334;36.986;-121.936;2023-01-31T11:55:24;101715.69;;;4.69;63.57
22333;BME280;11334;36.986;-121.936;2023-01-31T11:57:59;101705.53;;;4.51;63.63
22333;BME280;11334;36.986;-121.936;2023-01-31T12:00:30;101706.38;;;4.51;63.09
22333;BME280;11334;36.986;-121.936;2023-01-31T12:03:12;101695.44;;;4.45;63.88
22333;BME280;11334;36.986;-121.936;2023-01-31T12:05:44;101701.78;;;4.41;63.69
22333;BME280;11334;36.986;-121.936;2023-01-31T12:08:38;101703.47;;;4.42;64.43
22333;BME280;11334;36.986;-121.936;2023-01-31T12:13:46;101698.34;;;4.40;62.62
22333;BME280;11334;36.986;-121.936;2023-01-31T12:16:14;101704.59;;;4.38;64.06
22333;BME280;11334;36.986;-121.936;2023-01-31T12:27:21;101714.91;;;4.41;62.76
22333;BME280;11334;36.986;-121.936;2023-01-31T12:35:29;101704.06;;;4.33;63.79
22333;BME280;11334;36.986;-121.936;2023-01-31T12:40:47;101703.13;;;4.20;63.34
22333;BME280;11334;36.986;-121.936;2023-01-31T12:43:26;101709.75;;;4.26;62.34
22333;BME280;11334;36.986;-121.936;2023-01-31T13:02:29;101728.09;;;4.12;63.55
22333;BME280;11334;36.986;-121.936;2023-01-31T13:05:24;101735.19;;;4.10;62.62
22333;BME280;11334;36.986;-121.936;2023-01-31T13:08:13;101729.59;;;4.02;63.10
22333;BME280;11334;36.986;-121.936;2023-01-31T13:11:13;101733.50;;;3.95;63.35
22333;BME280;11334;36.986;-121.936;2023-01-31T13:13:51;101733.22;;;4.00;62.67
22333;BME280;11334;36.986;-121.936;2023-01-31T13:16:28;101729.22;;;3.94;63.06
22333;BME280;11334;36.986;-121.936;2023-01-31T13:18:59;101735.97;;;3.98;61.79
22333;BME280;11334;36.986;-121.936;2023-01-31T13:21:29;101739.69;;;3.94;62.37
22333;BME280;11334;36.986;-121.936;2023-01-31T13:24:10;101739.69;;;3.94;63.61
22333;BME280;11334;36.986;-121.936;2023-01-31T13:26:43;101733.88;;;3.89;63.97
22333;BME280;11334;36.986;-121.936;2023-01-31T13:29:20;101733.03;;;3.89;63.66
22333;BME280;11334;36.986;-121.936;2023-01-31T13:32:44;101735.41;;;3.93;62.88
22333;BME280;11334;36.986;-121.936;2023-01-31T13:37:39;101745.13;;;3.91;63.52
22333;BME280;11334;36.986;-121.936;2023-01-31T13:40:21;101751.59;;;4.00;62.11
22333;BME280;11334;36.986;-121.936;2023-01-31T13:42:49;101745.84;;;3.79;63.31
22333;BME280;11334;36.986;-121.936;2023-01-31T13:45:27;101766.53;;;3.84;63.60
22333;BME280;11334;36.986;-121.936;2023-01-31T13:48:01;101758.84;;;3.81;63.13
22333;BME280;11334;36.986;-121.936;2023-01-31T13:50:59;101761.09;;;3.87;61.90
22333;BME280;11334;36.986;-121.936;2023-01-31T13:53:34;101768.41;;;3.82;62.71
22333;BME280;11334;36.986;-121.936;2023-01-31T13:56:03;101764.38;;;3.90;62.05
22333;BME280;11334;36.986;-121.936;2023-01-31T13:58:35;101754.75;;;3.91;61.18
22333;BME280;11334;36.986;-121.936;2023-01-31T14:01:07;101763.34;;;3.93;61.24
22333;BME280;11334;36.986;-121.936;2023-01-31T14:14:51;101776.75;;;3.59;63.66
22333;BME280;11334;36.986;-121.936;2023-01-31T14:22:18;101801.81;;;3.78;62.71
22333;BME280;11334;36.986;-121.936;2023-01-31T14:27:26;101796.19;;;3.84;62.84
22333;BME280;11334;36.986;-121.936;2023-01-31T14:35:21;101797.22;;;3.82;62.96
22333;BME280;11334;36.986;-121.936;2023-01-31T14:43:08;101808.59;;;3.67;63.15
22333;BME280;11334;36.986;-121.936;2023-01-31T14:45:57;101821.34;;;3.58;63.79
22333;BME280;11334;36.986;-121.936;2023-01-31T14:57:15;101817.72;;;3.60;63.60
22333;BME280;11334;36.986;-121.936;2023-01-31T14:59:53;101812.19;;;3.51;63.42
22333;BME280;11334;36.986;-121.936;2023-01-31T15:07:32;101828.03;;;3.63;63.15